Station Historical Data
Daily Summary for April 2, 2012 Units:  Both    English   Metric
« Previous Day
Next Day »
Daily Weekly Monthly Yearly Custom
  High: Low: Average:
Temperature: 83.0 °F /  28.3 °C 61.5 °F /  16.4 °C 72 °F /  22.2 °C
Dew Point: 68.8 °F /  20.4 °C 59.7 °F /  15.4 °C 63.7 °F /  17.6 °C
Humidity: 94% 52% 77%
Wind Speed: 11.0mph /  17.7km/h - 2.8mph /  4.5km/h
Wind Gust: 12.0mph /  19.3km/h - -
Wind- - South
Pressure: 29.85 in /  1010.7 hPa 29.72 in /  1006.3 hPa -
Precipitation: 0.00 in /  0 mm    
Historical Graphs
 
 
Tabular Data for April 2, 2012
Time Temperature Dew Point Pressure Wind Wind Speed Wind Gust Humidity Rainfall Rate (Hourly) Conditions
00:00 70.3 °F /  21.3 °C 63.1 °F /  17.3 °C 29.74in /  1007hPa South 6.0mph /  9.7km/h 7.0mph /  11.3km/h 78% 0.00in /  0mm
00:01 70.4 °F /  21.3 °C 63.2 °F /  17.3 °C 29.74in /  1007hPa South 5.0mph /  8km/h 6.0mph /  9.7km/h 78% 0.00in /  0mm
00:02 70.3 °F /  21.3 °C 63.1 °F /  17.3 °C 29.74in /  1007hPa SW 2.0mph /  3.2km/h 6.0mph /  9.7km/h 78% 0.00in /  0mm
00:07 70.1 °F /  21.2 °C 63.3 °F /  17.4 °C 29.74in /  1007hPa SSW 2.0mph /  3.2km/h 6.0mph /  9.7km/h 79% 0.00in /  0mm
00:12 69.9 °F /  21.1 °C 63.1 °F /  17.3 °C 29.74in /  1007hPa SW 6.0mph /  9.7km/h 6.0mph /  9.7km/h 79% 0.00in /  0mm
00:17 69.6 °F /  20.9 °C 62.8 °F /  17.1 °C 29.74in /  1007hPa South 4.0mph /  6.4km/h 6.0mph /  9.7km/h 79% 0.00in /  0mm
00:22 69.5 °F /  20.8 °C 63.1 °F /  17.3 °C 29.74in /  1007hPa SW 3.0mph /  4.8km/h 6.0mph /  9.7km/h 80% 0.00in /  0mm
00:27 69.5 °F /  20.8 °C 63.1 °F /  17.3 °C 29.74in /  1007hPa SSW 3.0mph /  4.8km/h 9.0mph /  14.5km/h 80% 0.00in /  0mm
00:32 69.3 °F /  20.7 °C 62.9 °F /  17.2 °C 29.74in /  1007hPa South 3.0mph /  4.8km/h 7.0mph /  11.3km/h 80% 0.00in /  0mm
00:37 69.2 °F /  20.7 °C 62.8 °F /  17.1 °C 29.73in /  1006.7hPa SSW 3.0mph /  4.8km/h 6.0mph /  9.7km/h 80% 0.00in /  0mm
00:42 69.0 °F /  20.6 °C 62.9 °F /  17.2 °C 29.74in /  1007hPa South 3.0mph /  4.8km/h 5.0mph /  8km/h 81% 0.00in /  0mm
00:47 68.9 °F /  20.5 °C 62.8 °F /  17.1 °C 29.73in /  1006.7hPa South 4.0mph /  6.4km/h 6.0mph /  9.7km/h 81% 0.00in /  0mm
00:52 68.8 °F /  20.4 °C 62.7 °F /  17.1 °C 29.73in /  1006.7hPa SSE 4.0mph /  6.4km/h 7.0mph /  11.3km/h 81% 0.00in /  0mm
00:58 68.7 °F /  20.4 °C 62.6 °F /  17 °C 29.73in /  1006.7hPa SSE 3.0mph /  4.8km/h 7.0mph /  11.3km/h 81% 0.00in /  0mm
01:03 68.6 °F /  20.3 °C 62.5 °F /  16.9 °C 29.73in /  1006.7hPa South 3.0mph /  4.8km/h 7.0mph /  11.3km/h 81% 0.00in /  0mm
01:08 68.4 °F /  20.2 °C 62.7 °F /  17.1 °C 29.73in /  1006.7hPa SSW 2.0mph /  3.2km/h 4.0mph /  6.4km/h 82% 0.00in /  0mm
01:13 68.1 °F /  20.1 °C 62.4 °F /  16.9 °C 29.73in /  1006.7hPa SSW 2.0mph /  3.2km/h 4.0mph /  6.4km/h 82% 0.00in /  0mm
01:18 67.8 °F /  19.9 °C 62.5 °F /  16.9 °C 29.73in /  1006.7hPa SSW 3.0mph /  4.8km/h 3.0mph /  4.8km/h 83% 0.00in /  0mm
01:23 67.7 °F /  19.8 °C 62.4 °F /  16.9 °C 29.73in /  1006.7hPa SSW 3.0mph /  4.8km/h 5.0mph /  8km/h 83% 0.00in /  0mm
01:28 67.5 °F /  19.7 °C 62.5 °F /  16.9 °C 29.73in /  1006.7hPa SSW 4.0mph /  6.4km/h 7.0mph /  11.3km/h 84% 0.00in /  0mm
01:33 67.4 °F /  19.7 °C 62.4 °F /  16.9 °C 29.73in /  1006.7hPa SSW 2.0mph /  3.2km/h 3.0mph /  4.8km/h 84% 0.00in /  0mm
01:38 67.2 °F /  19.6 °C 62.2 °F /  16.8 °C 29.73in /  1006.7hPa SSW 3.0mph /  4.8km/h 3.0mph /  4.8km/h 84% 0.00in /  0mm
01:43 66.9 °F /  19.4 °C 62.2 °F /  16.8 °C 29.73in /  1006.7hPa SW 2.0mph /  3.2km/h 4.0mph /  6.4km/h 85% 0.00in /  0mm
01:48 66.9 °F /  19.4 °C 62.2 °F /  16.8 °C 29.73in /  1006.7hPa SSW 1.0mph /  1.6km/h 5.0mph /  8km/h 85% 0.00in /  0mm
01:53 66.8 °F /  19.3 °C 62.2 °F /  16.8 °C 29.73in /  1006.7hPa SSW 4.0mph /  6.4km/h 4.0mph /  6.4km/h 85% 0.00in /  0mm
01:58 66.8 °F /  19.3 °C 62.2 °F /  16.8 °C 29.73in /  1006.7hPa SSE 2.0mph /  3.2km/h 3.0mph /  4.8km/h 85% 0.00in /  0mm
02:03 66.7 °F /  19.3 °C 62.0 °F /  16.7 °C 29.73in /  1006.7hPa SSW 3.0mph /  4.8km/h 3.0mph /  4.8km/h 85% 0.00in /  0mm
02:08 66.7 °F /  19.3 °C 62.0 °F /  16.7 °C 29.73in /  1006.7hPa SSW 3.0mph /  4.8km/h 5.0mph /  8km/h 85% 0.00in /  0mm
02:13 66.6 °F /  19.2 °C 62.0 °F /  16.7 °C 29.73in /  1006.7hPa SSW 1.0mph /  1.6km/h 2.0mph /  3.2km/h 85% 0.00in /  0mm
02:18 66.3 °F /  19.1 °C 62.0 °F /  16.7 °C 29.73in /  1006.7hPa SSW 2.0mph /  3.2km/h 3.0mph /  4.8km/h 86% 0.00in /  0mm
02:23 66.1 °F /  18.9 °C 61.8 °F /  16.6 °C 29.73in /  1006.7hPa SW 2.0mph /  3.2km/h 3.0mph /  4.8km/h 86% 0.00in /  0mm
02:28 66.0 °F /  18.9 °C 62.0 °F /  16.7 °C 29.73in /  1006.7hPa South 2.0mph /  3.2km/h 3.0mph /  4.8km/h 87% 0.00in /  0mm
02:33 66.0 °F /  18.9 °C 62.0 °F /  16.7 °C 29.73in /  1006.7hPa SE 2.0mph /  3.2km/h 3.0mph /  4.8km/h 87% 0.00in /  0mm
02:38 65.9 °F /  18.8 °C 61.9 °F /  16.6 °C 29.72in /  1006.3hPa SW 2.0mph /  3.2km/h 2.0mph /  3.2km/h 87% 0.00in /  0mm
02:43 65.8 °F /  18.8 °C 61.8 °F /  16.6 °C 29.73in /  1006.7hPa SSW 2.0mph /  3.2km/h 3.0mph /  4.8km/h 87% 0.00in /  0mm
02:48 65.7 °F /  18.7 °C 61.7 °F /  16.5 °C 29.72in /  1006.3hPa WSW 1.0mph /  1.6km/h 2.0mph /  3.2km/h 87% 0.00in /  0mm
02:53 65.6 °F /  18.7 °C 62.0 °F /  16.7 °C 29.72in /  1006.3hPa South 1.0mph /  1.6km/h 2.0mph /  3.2km/h 88% 0.00in /  0mm
02:58 65.6 °F /  18.7 °C 62.0 °F /  16.7 °C 29.72in /  1006.3hPa South 1.0mph /  1.6km/h 3.0mph /  4.8km/h 88% 0.00in /  0mm
03:03 65.5 °F /  18.6 °C 61.9 °F /  16.6 °C 29.72in /  1006.3hPa South 1.0mph /  1.6km/h 3.0mph /  4.8km/h 88% 0.00in /  0mm
03:08 65.4 °F /  18.6 °C 61.8 °F /  16.6 °C 29.72in /  1006.3hPa SSE 1.0mph /  1.6km/h 2.0mph /  3.2km/h 88% 0.00in /  0mm
03:13 65.4 °F /  18.6 °C 61.8 °F /  16.6 °C 29.72in /  1006.3hPa SSE 2.0mph /  3.2km/h 2.0mph /  3.2km/h 88% 0.00in /  0mm
03:18 65.4 °F /  18.6 °C 61.8 °F /  16.6 °C 29.72in /  1006.3hPa SSE 2.0mph /  3.2km/h 2.0mph /  3.2km/h 88% 0.00in /  0mm
03:23 65.2 °F /  18.4 °C 61.9 °F /  16.6 °C 29.72in /  1006.3hPa SSE 2.0mph /  3.2km/h 3.0mph /  4.8km/h 89% 0.00in /  0mm
03:28 65.1 °F /  18.4 °C 61.8 °F /  16.6 °C 29.72in /  1006.3hPa SSW 1.0mph /  1.6km/h 3.0mph /  4.8km/h 89% 0.00in /  0mm
03:33 65.0 °F /  18.3 °C 61.7 °F /  16.5 °C 29.72in /  1006.3hPa SSE 1.0mph /  1.6km/h 2.0mph /  3.2km/h 89% 0.00in /  0mm
03:38 64.8 °F /  18.2 °C 61.5 °F /  16.4 °C 29.72in /  1006.3hPa South 1.0mph /  1.6km/h 2.0mph /  3.2km/h 89% 0.00in /  0mm
03:43 64.6 °F /  18.1 °C 61.6 °F /  16.4 °C 29.72in /  1006.3hPa SSE 1.0mph /  1.6km/h 2.0mph /  3.2km/h 90% 0.00in /  0mm
03:48 64.4 °F /  18 °C 61.4 °F /  16.3 °C 29.72in /  1006.3hPa SE 2.0mph /  3.2km/h 2.0mph /  3.2km/h 90% 0.00in /  0mm
03:53 64.4 °F /  18 °C 61.4 °F /  16.3 °C 29.72in /  1006.3hPa SE 2.0mph /  3.2km/h 2.0mph /  3.2km/h 90% 0.00in /  0mm
03:58 64.3 °F /  17.9 °C 61.3 °F /  16.3 °C 29.72in /  1006.3hPa SSE 1.0mph /  1.6km/h 2.0mph /  3.2km/h 90% 0.00in /  0mm
04:03 64.2 °F /  17.9 °C 61.5 °F /  16.4 °C 29.72in /  1006.3hPa Calm   1.0mph /  1.6km/h 91% 0.00in /  0mm
04:08 64.2 °F /  17.9 °C 61.5 °F /  16.4 °C 29.72in /  1006.3hPa Calm   1.0mph /  1.6km/h 91% 0.00in /  0mm
04:13 64.1 °F /  17.8 °C 61.4 °F /  16.3 °C 29.72in /  1006.3hPa ESE 1.0mph /  1.6km/h 1.0mph /  1.6km/h 91% 0.00in /  0mm
04:18 64.1 °F /  17.8 °C 61.4 °F /  16.3 °C 29.72in /  1006.3hPa ESE 1.0mph /  1.6km/h 1.0mph /  1.6km/h 91% 0.00in /  0mm
04:23 64.0 °F /  17.8 °C 61.3 °F /  16.3 °C 29.72in /  1006.3hPa ESE 1.0mph /  1.6km/h 1.0mph /  1.6km/h 91% 0.00in /  0mm
04:28 63.8 °F /  17.7 °C 61.1 °F /  16.2 °C 29.72in /  1006.3hPa ESE 1.0mph /  1.6km/h 1.0mph /  1.6km/h 91% 0.00in /  0mm
04:33 63.7 °F /  17.6 °C 61.0 °F /  16.1 °C 29.72in /  1006.3hPa Calm   1.0mph /  1.6km/h 91% 0.00in /  0mm
04:39 63.4 °F /  17.4 °C 61.0 °F /  16.1 °C 29.72in /  1006.3hPa Calm   1.0mph /  1.6km/h 92% 0.00in /  0mm
04:44 63.2 °F /  17.3 °C 60.8 °F /  16 °C 29.72in /  1006.3hPa Calm     92% 0.00in /  0mm
04:49 63.0 °F /  17.2 °C 60.6 °F /  15.9 °C 29.72in /  1006.3hPa ESE 1.0mph /  1.6km/h 1.0mph /  1.6km/h 92% 0.00in /  0mm
04:54 62.8 °F /  17.1 °C 60.8 °F /  16 °C 29.73in /  1006.7hPa Calm   1.0mph /  1.6km/h 93% 0.00in /  0mm
04:59 62.8 °F /  17.1 °C 60.8 °F /  16 °C 29.73in /  1006.7hPa Calm   2.0mph /  3.2km/h 93% 0.00in /  0mm
05:04 62.6 °F /  17 °C 60.5 °F /  15.8 °C 29.73in /  1006.7hPa Calm     93% 0.00in /  0mm
05:09 62.4 °F /  16.9 °C 60.3 °F /  15.7 °C 29.73in /  1006.7hPa Calm     93% 0.00in /  0mm
05:14 62.3 °F /  16.8 °C 60.2 °F /  15.7 °C 29.73in /  1006.7hPa Calm     93% 0.00in /  0mm
05:19 62.4 °F /  16.9 °C 60.7 °F /  15.9 °C 29.73in /  1006.7hPa ESE 1.0mph /  1.6km/h 1.0mph /  1.6km/h 94% 0.00in /  0mm
05:24 62.6 °F /  17 °C 60.8 °F /  16 °C 29.73in /  1006.7hPa Calm   1.0mph /  1.6km/h 94% 0.00in /  0mm
05:29 62.5 °F /  16.9 °C 60.8 °F /  16 °C 29.73in /  1006.7hPa SE 1.0mph /  1.6km/h 1.0mph /  1.6km/h 94% 0.00in /  0mm
05:34 62.3 °F /  16.8 °C 60.2 °F /  15.7 °C 29.74in /  1007hPa SE 2.0mph /  3.2km/h 2.0mph /  3.2km/h 93% 0.00in /  0mm
05:39 62.2 °F /  16.8 °C 60.2 °F /  15.7 °C 29.74in /  1007hPa SE 2.0mph /  3.2km/h 2.0mph /  3.2km/h 93% 0.00in /  0mm
05:44 62.2 °F /  16.8 °C 60.5 °F /  15.8 °C 29.74in /  1007hPa SE 2.0mph /  3.2km/h 2.0mph /  3.2km/h 94% 0.00in /  0mm
05:49 62.4 °F /  16.9 °C 60.7 °F /  15.9 °C 29.74in /  1007hPa SE 2.0mph /  3.2km/h 2.0mph /  3.2km/h 94% 0.00in /  0mm
05:54 62.6 °F /  17 °C 60.8 °F /  16 °C 29.74in /  1007hPa ESE 1.0mph /  1.6km/h 2.0mph /  3.2km/h 94% 0.00in /  0mm
05:59 62.7 °F /  17.1 °C 60.7 °F /  15.9 °C 29.75in /  1007.3hPa ESE 1.0mph /  1.6km/h 1.0mph /  1.6km/h 93% 0.00in /  0mm
06:04 62.4 °F /  16.9 °C 60.3 °F /  15.7 °C 29.75in /  1007.3hPa ESE 1.0mph /  1.6km/h 2.0mph /  3.2km/h 93% 0.00in /  0mm
06:09 62.1 °F /  16.7 °C 60.1 °F /  15.6 °C 29.75in /  1007.3hPa SE 1.0mph /  1.6km/h 1.0mph /  1.6km/h 93% 0.00in /  0mm
06:14 62.0 °F /  16.7 °C 60.0 °F /  15.6 °C 29.75in /  1007.3hPa East 1.0mph /  1.6km/h 1.0mph /  1.6km/h 93% 0.00in /  0mm
06:19 62.0 °F /  16.7 °C 60.0 °F /  15.6 °C 29.76in /  1007.7hPa East 1.0mph /  1.6km/h 1.0mph /  1.6km/h 93% 0.00in /  0mm
06:24 62.0 °F /  16.7 °C 60.0 °F /  15.6 °C 29.76in /  1007.7hPa Calm   1.0mph /  1.6km/h 93% 0.00in /  0mm
06:29 61.7 °F /  16.5 °C 59.7 °F /  15.4 °C 29.76in /  1007.7hPa East 1.0mph /  1.6km/h 1.0mph /  1.6km/h 93% 0.00in /  0mm
06:34 61.6 °F /  16.4 °C 59.9 °F /  15.5 °C 29.76in /  1007.7hPa Calm   1.0mph /  1.6km/h 94% 0.00in /  0mm
06:39 61.6 °F /  16.4 °C 59.9 °F /  15.5 °C 29.76in /  1007.7hPa Calm   1.0mph /  1.6km/h 94% 0.00in /  0mm
06:44 61.6 °F /  16.4 °C 59.9 °F /  15.5 °C 29.77in /  1008hPa East 1.0mph /  1.6km/h 1.0mph /  1.6km/h 94% 0.00in /  0mm
06:49 61.6 °F /  16.4 °C 59.9 °F /  15.5 °C 29.77in /  1008hPa ESE 1.0mph /  1.6km/h 1.0mph /  1.6km/h 94% 0.00in /  0mm
06:54 61.5 °F /  16.4 °C 59.8 °F /  15.4 °C 29.77in /  1008hPa SE 1.0mph /  1.6km/h 1.0mph /  1.6km/h 94% 0.00in /  0mm
06:59 61.5 °F /  16.4 °C 59.8 °F /  15.4 °C 29.78in /  1008.4hPa SE 1.0mph /  1.6km/h 1.0mph /  1.6km/h 94% 0.00in /  0mm
07:04 61.7 °F /  16.5 °C 60.0 °F /  15.6 °C 29.78in /  1008.4hPa SE 1.0mph /  1.6km/h 1.0mph /  1.6km/h 94% 0.00in /  0mm
07:10 62.0 °F /  16.7 °C 60.3 °F /  15.7 °C 29.78in /  1008.4hPa SSE 2.0mph /  3.2km/h 2.0mph /  3.2km/h 94% 0.00in /  0mm
07:15 62.3 °F /  16.8 °C 60.6 °F /  15.9 °C 29.78in /  1008.4hPa SSE 1.0mph /  1.6km/h 2.0mph /  3.2km/h 94% 0.00in /  0mm
07:20 62.7 °F /  17.1 °C 61.0 °F /  16.1 °C 29.78in /  1008.4hPa SW 2.0mph /  3.2km/h 3.0mph /  4.8km/h 94% 0.00in /  0mm
07:25 62.9 °F /  17.2 °C 61.2 °F /  16.2 °C 29.79in /  1008.7hPa SSW 1.0mph /  1.6km/h 1.0mph /  1.6km/h 94% 0.00in /  0mm
07:30 63.0 °F /  17.2 °C 61.2 °F /  16.2 °C 29.79in /  1008.7hPa SSW 1.0mph /  1.6km/h 2.0mph /  3.2km/h 94% 0.00in /  0mm
07:35 63.1 °F /  17.3 °C 61.3 °F /  16.3 °C 29.78in /  1008.4hPa Calm   2.0mph /  3.2km/h 94% 0.00in /  0mm
07:40 63.2 °F /  17.3 °C 61.5 °F /  16.4 °C 29.79in /  1008.7hPa South 1.0mph /  1.6km/h 3.0mph /  4.8km/h 94% 0.00in /  0mm
07:42 63.2 °F /  17.3 °C 61.5 °F /  16.4 °C 29.79in /  1008.7hPa SSE 1.0mph /  1.6km/h 2.0mph /  3.2km/h 94% 0.00in /  0mm
07:47 63.2 °F /  17.3 °C 61.5 °F /  16.4 °C 29.79in /  1008.7hPa South 2.0mph /  3.2km/h 2.0mph /  3.2km/h 94% 0.00in /  0mm
07:52 63.2 °F /  17.3 °C 61.5 °F /  16.4 °C 29.79in /  1008.7hPa South 2.0mph /  3.2km/h 3.0mph /  4.8km/h 94% 0.00in /  0mm
07:57 63.2 °F /  17.3 °C 61.2 °F /  16.2 °C 29.79in /  1008.7hPa SE 2.0mph /  3.2km/h 2.0mph /  3.2km/h 93% 0.00in /  0mm
07:58 63.2 °F /  17.3 °C 61.5 °F /  16.4 °C 29.79in /  1008.7hPa SSE 1.0mph /  1.6km/h 2.0mph /  3.2km/h 94% 0.00in /  0mm
08:03 63.3 °F /  17.4 °C 61.5 °F /  16.4 °C 29.80in /  1009hPa SSE 3.0mph /  4.8km/h 3.0mph /  4.8km/h 94% 0.00in /  0mm
08:08 63.5 °F /  17.5 °C 61.8 °F /  16.6 °C 29.80in /  1009hPa South 2.0mph /  3.2km/h 3.0mph /  4.8km/h 94% 0.00in /  0mm
08:13 63.7 °F /  17.6 °C 61.6 °F /  16.4 °C 29.81in /  1009.4hPa SSE 2.0mph /  3.2km/h 3.0mph /  4.8km/h 93% 0.00in /  0mm
08:18 63.9 °F /  17.7 °C 61.8 °F /  16.6 °C 29.81in /  1009.4hPa SE 1.0mph /  1.6km/h 2.0mph /  3.2km/h 93% 0.00in /  0mm
08:23 64.1 °F /  17.8 °C 62.0 °F /  16.7 °C 29.81in /  1009.4hPa South 3.0mph /  4.8km/h 4.0mph /  6.4km/h 93% 0.00in /  0mm
08:28 64.4 °F /  18 °C 62.3 °F /  16.8 °C 29.81in /  1009.4hPa South 2.0mph /  3.2km/h 4.0mph /  6.4km/h 93% 0.00in /  0mm
08:33 64.8 °F /  18.2 °C 62.7 °F /  17.1 °C 29.81in /  1009.4hPa South 4.0mph /  6.4km/h 4.0mph /  6.4km/h 93% 0.00in /  0mm
08:38 65.3 °F /  18.5 °C 63.2 °F /  17.3 °C 29.82in /  1009.7hPa South 3.0mph /  4.8km/h 4.0mph /  6.4km/h 93% 0.00in /  0mm
08:43 65.6 °F /  18.7 °C 63.2 °F /  17.3 °C 29.81in /  1009.4hPa SSW 3.0mph /  4.8km/h 7.0mph /  11.3km/h 92% 0.00in /  0mm
08:48 66.1 °F /  18.9 °C 63.7 °F /  17.6 °C 29.82in /  1009.7hPa SW 2.0mph /  3.2km/h 4.0mph /  6.4km/h 92% 0.00in /  0mm
08:53 66.4 °F /  19.1 °C 64.0 °F /  17.8 °C 29.82in /  1009.7hPa South 4.0mph /  6.4km/h 4.0mph /  6.4km/h 92% 0.00in /  0mm
08:58 66.7 °F /  19.3 °C 64.0 °F /  17.8 °C 29.82in /  1009.7hPa South 2.0mph /  3.2km/h 6.0mph /  9.7km/h 91% 0.00in /  0mm
09:03 66.7 °F /  19.3 °C 64.0 °F /  17.8 °C 29.82in /  1009.7hPa SW 4.0mph /  6.4km/h 4.0mph /  6.4km/h 91% 0.00in /  0mm
09:08 66.8 °F /  19.3 °C 64.1 °F /  17.8 °C 29.83in /  1010hPa SW 3.0mph /  4.8km/h 5.0mph /  8km/h 91% 0.00in /  0mm
09:13 66.9 °F /  19.4 °C 64.2 °F /  17.9 °C 29.83in /  1010hPa SSW 3.0mph /  4.8km/h 6.0mph /  9.7km/h 91% 0.00in /  0mm
09:18 67.1 °F /  19.5 °C 64.4 °F /  18 °C 29.83in /  1010hPa SW 3.0mph /  4.8km/h 5.0mph /  8km/h 91% 0.00in /  0mm
09:23 67.3 °F /  19.6 °C 64.6 °F /  18.1 °C 29.83in /  1010hPa SW 3.0mph /  4.8km/h 4.0mph /  6.4km/h 91% 0.00in /  0mm
09:28 67.7 °F /  19.8 °C 64.7 °F /  18.2 °C 29.83in /  1010hPa SSW 4.0mph /  6.4km/h 6.0mph /  9.7km/h 90% 0.00in /  0mm
09:33 68.0 °F /  20 °C 65.0 °F /  18.3 °C 29.83in /  1010hPa SSW 3.0mph /  4.8km/h 7.0mph /  11.3km/h 90% 0.00in /  0mm
09:38 68.5 °F /  20.3 °C 65.1 °F /  18.4 °C 29.83in /  1010hPa SW 4.0mph /  6.4km/h 6.0mph /  9.7km/h 89% 0.00in /  0mm
09:43 68.7 °F /  20.4 °C 65.3 °F /  18.5 °C 29.83in /  1010hPa WSW 6.0mph /  9.7km/h 8.0mph /  12.9km/h 89% 0.00in /  0mm
09:48 68.7 °F /  20.4 °C 65.3 °F /  18.5 °C 29.84in /  1010.4hPa SW 8.0mph /  12.9km/h 8.0mph /  12.9km/h 89% 0.00in /  0mm
09:53 68.8 °F /  20.4 °C 65.1 °F /  18.4 °C 29.84in /  1010.4hPa SW 5.0mph /  8km/h 8.0mph /  12.9km/h 88% 0.00in /  0mm
09:59 69.1 °F /  20.6 °C 65.7 °F /  18.7 °C 29.84in /  1010.4hPa WSW 4.0mph /  6.4km/h 6.0mph /  9.7km/h 89% 0.00in /  0mm
10:04 69.5 °F /  20.8 °C 65.8 °F /  18.8 °C 29.84in /  1010.4hPa SSW 4.0mph /  6.4km/h 8.0mph /  12.9km/h 88% 0.00in /  0mm
10:09 69.6 °F /  20.9 °C 65.6 °F /  18.7 °C 29.84in /  1010.4hPa WSW 3.0mph /  4.8km/h 8.0mph /  12.9km/h 87% 0.00in /  0mm
10:14 70.0 °F /  21.1 °C 66.0 °F /  18.9 °C 29.84in /  1010.4hPa WSW 3.0mph /  4.8km/h 5.0mph /  8km/h 87% 0.00in /  0mm
10:19 70.1 °F /  21.2 °C 66.1 °F /  18.9 °C 29.84in /  1010.4hPa WSW 2.0mph /  3.2km/h 5.0mph /  8km/h 87% 0.00in /  0mm
10:24 70.3 °F /  21.3 °C 66.6 °F /  19.2 °C 29.84in /  1010.4hPa WSW 4.0mph /  6.4km/h 6.0mph /  9.7km/h 88% 0.00in /  0mm
10:29 70.3 °F /  21.3 °C 65.9 °F /  18.8 °C 29.84in /  1010.4hPa SSW 4.0mph /  6.4km/h 10.0mph /  16.1km/h 86% 0.00in /  0mm
10:34 70.5 °F /  21.4 °C 66.1 °F /  18.9 °C 29.84in /  1010.4hPa SW 2.0mph /  3.2km/h 7.0mph /  11.3km/h 86% 0.00in /  0mm
10:39 71.2 °F /  21.8 °C 66.8 °F /  19.3 °C 29.84in /  1010.4hPa WSW 4.0mph /  6.4km/h 4.0mph /  6.4km/h 86% 0.00in /  0mm
10:44 71.4 °F /  21.9 °C 67.0 °F /  19.4 °C 29.84in /  1010.4hPa SW 5.0mph /  8km/h 6.0mph /  9.7km/h 86% 0.00in /  0mm
10:49 71.7 °F /  22.1 °C 66.9 °F /  19.4 °C 29.84in /  1010.4hPa West 7.0mph /  11.3km/h 8.0mph /  12.9km/h 85% 0.00in /  0mm
10:54 71.8 °F /  22.1 °C 66.7 °F /  19.3 °C 29.84in /  1010.4hPa WSW 6.0mph /  9.7km/h 9.0mph /  14.5km/h 84% 0.00in /  0mm
10:59 72.4 °F /  22.4 °C 68.0 °F /  20 °C 29.84in /  1010.4hPa WSW 2.0mph /  3.2km/h 6.0mph /  9.7km/h 86% 0.00in /  0mm
11:04 73.1 °F /  22.8 °C 68.0 °F /  20 °C 29.84in /  1010.4hPa SW 7.0mph /  11.3km/h 7.0mph /  11.3km/h 84% 0.00in /  0mm
11:09 73.2 °F /  22.9 °C 67.4 °F /  19.7 °C 29.84in /  1010.4hPa WSW 8.0mph /  12.9km/h 8.0mph /  12.9km/h 82% 0.00in /  0mm
11:14 73.1 °F /  22.8 °C 66.9 °F /  19.4 °C 29.84in /  1010.4hPa WSW 4.0mph /  6.4km/h 7.0mph /  11.3km/h 81% 0.00in /  0mm
11:19 73.5 °F /  23.1 °C 67.7 °F /  19.8 °C 29.84in /  1010.4hPa West 3.0mph /  4.8km/h 7.0mph /  11.3km/h 82% 0.00in /  0mm
11:24 73.9 °F /  23.3 °C 67.3 °F /  19.6 °C 29.84in /  1010.4hPa SW 11.0mph /  17.7km/h 11.0mph /  17.7km/h 80% 0.00in /  0mm
11:29 73.8 °F /  23.2 °C 67.2 °F /  19.6 °C 29.84in /  1010.4hPa West 6.0mph /  9.7km/h 12.0mph /  19.3km/h 80% 0.00in /  0mm
11:35 73.8 °F /  23.2 °C 67.2 °F /  19.6 °C 29.84in /  1010.4hPa SW 8.0mph /  12.9km/h 8.0mph /  12.9km/h 80% 0.00in /  0mm
11:40 74.1 °F /  23.4 °C 67.5 °F /  19.7 °C 29.84in /  1010.4hPa SW 8.0mph /  12.9km/h 8.0mph /  12.9km/h 80% 0.00in /  0mm
11:45 74.3 °F /  23.5 °C 67.4 °F /  19.7 °C 29.84in /  1010.4hPa SW 3.0mph /  4.8km/h 11.0mph /  17.7km/h 79% 0.00in /  0mm
11:50 75.0 °F /  23.9 °C 68.1 °F /  20.1 °C 29.84in /  1010.4hPa WNW 3.0mph /  4.8km/h 10.0mph /  16.1km/h 79% 0.00in /  0mm
11:55 75.0 °F /  23.9 °C 67.3 °F /  19.6 °C 29.84in /  1010.4hPa SW 5.0mph /  8km/h 9.0mph /  14.5km/h 77% 0.00in /  0mm
12:00 75.4 °F /  24.1 °C 68.1 °F /  20.1 °C 29.84in /  1010.4hPa WSW 6.0mph /  9.7km/h 7.0mph /  11.3km/h 78% 0.00in /  0mm
12:06 75.7 °F /  24.3 °C 68.0 °F /  20 °C 29.84in /  1010.4hPa SW 4.0mph /  6.4km/h 9.0mph /  14.5km/h 77% 0.00in /  0mm
12:11 75.8 °F /  24.3 °C 66.9 °F /  19.4 °C 29.84in /  1010.4hPa WSW 8.0mph /  12.9km/h 8.0mph /  12.9km/h 74% 0.00in /  0mm
12:16 75.8 °F /  24.3 °C 67.3 °F /  19.6 °C 29.84in /  1010.4hPa SW 8.0mph /  12.9km/h 9.0mph /  14.5km/h 75% 0.00in /  0mm
12:21 76.1 °F /  24.5 °C 67.6 °F /  19.8 °C 29.84in /  1010.4hPa WSW 2.0mph /  3.2km/h 7.0mph /  11.3km/h 75% 0.00in /  0mm
12:26 76.2 °F /  24.6 °C 67.7 °F /  19.8 °C 29.84in /  1010.4hPa SW 3.0mph /  4.8km/h 11.0mph /  17.7km/h 75% 0.00in /  0mm
12:31 76.3 °F /  24.6 °C 67.0 °F /  19.4 °C 29.83in /  1010hPa WNW 7.0mph /  11.3km/h 11.0mph /  17.7km/h 73% 0.00in /  0mm
12:36 76.8 °F /  24.9 °C 67.1 °F /  19.5 °C 29.83in /  1010hPa SSW 8.0mph /  12.9km/h 10.0mph /  16.1km/h 72% 0.00in /  0mm
12:41 76.9 °F /  24.9 °C 66.8 °F /  19.3 °C 29.83in /  1010hPa WNW 5.0mph /  8km/h 8.0mph /  12.9km/h 71% 0.00in /  0mm
12:47 77.0 °F /  25 °C 66.9 °F /  19.4 °C 29.83in /  1010hPa West 5.0mph /  8km/h 10.0mph /  16.1km/h 71% 0.00in /  0mm
12:52 77.2 °F /  25.1 °C 67.9 °F /  19.9 °C 29.83in /  1010hPa North 5.0mph /  8km/h 5.0mph /  8km/h 73% 0.00in /  0mm
12:57 77.7 °F /  25.4 °C 67.1 °F /  19.5 °C 29.83in /  1010hPa SW 4.0mph /  6.4km/h 8.0mph /  12.9km/h 70% 0.00in /  0mm
13:02 77.8 °F /  25.4 °C 66.0 °F /  18.9 °C 29.82in /  1009.7hPa South 3.0mph /  4.8km/h 8.0mph /  12.9km/h 67% 0.00in /  0mm
13:07 78.0 °F /  25.6 °C 67.0 °F /  19.4 °C 29.83in /  1010hPa SSW 4.0mph /  6.4km/h 8.0mph /  12.9km/h 69% 0.00in /  0mm
13:12 78.5 °F /  25.8 °C 66.2 °F /  19 °C 29.83in /  1010hPa WSW 6.0mph /  9.7km/h 10.0mph /  16.1km/h 66% 0.00in /  0mm
13:17 78.1 °F /  25.6 °C 66.7 °F /  19.3 °C 29.83in /  1010hPa SW 5.0mph /  8km/h 8.0mph /  12.9km/h 68% 0.00in /  0mm
13:22 77.8 °F /  25.4 °C 66.8 °F /  19.3 °C 29.82in /  1009.7hPa WNW 2.0mph /  3.2km/h 3.0mph /  4.8km/h 69% 0.00in /  0mm
13:27 78.2 °F /  25.7 °C 66.8 °F /  19.3 °C 29.82in /  1009.7hPa SW 3.0mph /  4.8km/h 10.0mph /  16.1km/h 68% 0.00in /  0mm
13:33 78.8 °F /  26 °C 67.4 °F /  19.7 °C 29.83in /  1010hPa West 5.0mph /  8km/h 8.0mph /  12.9km/h 68% 0.00in /  0mm
13:38 78.9 °F /  26.1 °C 66.2 °F /  19 °C 29.83in /  1010hPa SE 1.0mph /  1.6km/h 6.0mph /  9.7km/h 65% 0.00in /  0mm
13:43 79.5 °F /  26.4 °C 66.3 °F /  19.1 °C 29.83in /  1010hPa SW 2.0mph /  3.2km/h 6.0mph /  9.7km/h 64% 0.00in /  0mm
13:48 79.5 °F /  26.4 °C 65.8 °F /  18.8 °C 29.82in /  1009.7hPa SSE 5.0mph /  8km/h 7.0mph /  11.3km/h 63% 0.00in /  0mm
13:53 79.6 °F /  26.4 °C 66.4 °F /  19.1 °C 29.83in /  1010hPa West 7.0mph /  11.3km/h 8.0mph /  12.9km/h 64% 0.00in /  0mm
13:58 79.5 °F /  26.4 °C 66.3 °F /  19.1 °C 29.82in /  1009.7hPa SW 2.0mph /  3.2km/h 6.0mph /  9.7km/h 64% 0.00in /  0mm
14:04 79.7 °F /  26.5 °C 66.0 °F /  18.9 °C 29.82in /  1009.7hPa SW 3.0mph /  4.8km/h 4.0mph /  6.4km/h 63% 0.00in /  0mm
14:09 79.9 °F /  26.6 °C 65.7 °F /  18.7 °C 29.82in /  1009.7hPa SSE 1.0mph /  1.6km/h 8.0mph /  12.9km/h 62% 0.00in /  0mm
14:14 80.6 °F /  27 °C 66.4 °F /  19.1 °C 29.82in /  1009.7hPa West 7.0mph /  11.3km/h 7.0mph /  11.3km/h 62% 0.00in /  0mm
14:19 80.6 °F /  27 °C 66.4 °F /  19.1 °C 29.82in /  1009.7hPa South 3.0mph /  4.8km/h 4.0mph /  6.4km/h 62% 0.00in /  0mm
14:24 80.9 °F /  27.2 °C 66.2 °F /  19 °C 29.81in /  1009.4hPa NW 3.0mph /  4.8km/h 6.0mph /  9.7km/h 61% 0.00in /  0mm
14:29 80.6 °F /  27 °C 65.4 °F /  18.6 °C 29.81in /  1009.4hPa NW 2.0mph /  3.2km/h 6.0mph /  9.7km/h 60% 0.00in /  0mm
14:34 80.5 °F /  26.9 °C 65.8 °F /  18.8 °C 29.81in /  1009.4hPa NNE 1.0mph /  1.6km/h 4.0mph /  6.4km/h 61% 0.00in /  0mm
14:39 80.6 °F /  27 °C 65.0 °F /  18.3 °C 29.81in /  1009.4hPa NNE 3.0mph /  4.8km/h 4.0mph /  6.4km/h 59% 0.00in /  0mm
14:44 81.0 °F /  27.2 °C 65.8 °F /  18.8 °C 29.81in /  1009.4hPa Calm   4.0mph /  6.4km/h 60% 0.00in /  0mm
14:50 81.8 °F /  27.7 °C 65.6 °F /  18.7 °C 29.81in /  1009.4hPa WNW 4.0mph /  6.4km/h 4.0mph /  6.4km/h 58% 0.00in /  0mm
14:56 81.5 °F /  27.5 °C 64.8 °F /  18.2 °C 29.80in /  1009hPa West 4.0mph /  6.4km/h 7.0mph /  11.3km/h 57% 0.00in /  0mm
15:01 81.2 °F /  27.3 °C 68.8 °F /  20.4 °C 29.80in /  1009hPa WNW 1.0mph /  1.6km/h 4.0mph /  6.4km/h 66% 0.00in /  0mm
15:06 81.6 °F /  27.6 °C 65.4 °F /  18.6 °C 29.80in /  1009hPa SE 3.0mph /  4.8km/h 4.0mph /  6.4km/h 58% 0.00in /  0mm
15:11 81.6 °F /  27.6 °C 65.9 °F /  18.8 °C 29.80in /  1009hPa East 3.0mph /  4.8km/h 4.0mph /  6.4km/h 59% 0.00in /  0mm
15:16 81.5 °F /  27.5 °C 65.3 °F /  18.5 °C 29.79in /  1008.7hPa East 5.0mph /  8km/h 5.0mph /  8km/h 58% 0.00in /  0mm
15:22 81.4 °F /  27.4 °C 66.7 °F /  19.3 °C 29.79in /  1008.7hPa South 2.0mph /  3.2km/h 3.0mph /  4.8km/h 61% 0.00in /  0mm
15:27 82.1 °F /  27.8 °C 64.9 °F /  18.3 °C 29.79in /  1008.7hPa West 5.0mph /  8km/h 5.0mph /  8km/h 56% 0.00in /  0mm
15:32 82.3 °F /  27.9 °C 66.6 °F /  19.2 °C 29.78in /  1008.4hPa SW 5.0mph /  8km/h 5.0mph /  8km/h 59% 0.00in /  0mm
15:37 82.4 °F /  28 °C 64.6 °F /  18.1 °C 29.79in /  1008.7hPa West 4.0mph /  6.4km/h 5.0mph /  8km/h 55% 0.00in /  0mm
15:42 82.4 °F /  28 °C 64.1 °F /  17.8 °C 29.78in /  1008.4hPa WNW 2.0mph /  3.2km/h 4.0mph /  6.4km/h 54% 0.00in /  0mm
15:47 82.3 °F /  27.9 °C 63.5 °F /  17.5 °C 29.78in /  1008.4hPa WSW 3.0mph /  4.8km/h 6.0mph /  9.7km/h 53% 0.00in /  0mm
15:52 82.4 °F /  28 °C 65.1 °F /  18.4 °C 29.78in /  1008.4hPa WSW 4.0mph /  6.4km/h 4.0mph /  6.4km/h 56% 0.00in /  0mm
15:57 82.9 °F /  28.3 °C 65.1 °F /  18.4 °C 29.78in /  1008.4hPa SSE 5.0mph /  8km/h 8.0mph /  12.9km/h 55% 0.00in /  0mm
16:02 82.8 °F /  28.2 °C 65.5 °F /  18.6 °C 29.78in /  1008.4hPa SSE 6.0mph /  9.7km/h 7.0mph /  11.3km/h 56% 0.00in /  0mm
16:07 82.9 °F /  28.3 °C 66.6 °F /  19.2 °C 29.78in /  1008.4hPa SSE 5.0mph /  8km/h 8.0mph /  12.9km/h 58% 0.00in /  0mm
16:12 82.8 °F /  28.2 °C 63.4 °F /  17.4 °C 29.77in /  1008hPa WSW 2.0mph /  3.2km/h 5.0mph /  8km/h 52% 0.00in /  0mm
16:17 82.8 °F /  28.2 °C 64.5 °F /  18.1 °C 29.77in /  1008hPa East 3.0mph /  4.8km/h 3.0mph /  4.8km/h 54% 0.00in /  0mm
16:22 82.6 °F /  28.1 °C 64.8 °F /  18.2 °C 29.77in /  1008hPa SE 4.0mph /  6.4km/h 5.0mph /  8km/h 55% 0.00in /  0mm
16:27 82.8 °F /  28.2 °C 64.5 °F /  18.1 °C 29.77in /  1008hPa SSE 7.0mph /  11.3km/h 8.0mph /  12.9km/h 54% 0.00in /  0mm
16:32 82.8 °F /  28.2 °C 63.9 °F /  17.7 °C 29.77in /  1008hPa Calm   5.0mph /  8km/h 53% 0.00in /  0mm
16:38 83.0 °F /  28.3 °C 65.2 °F /  18.4 °C 29.77in /  1008hPa SSE 8.0mph /  12.9km/h 9.0mph /  14.5km/h 55% 0.00in /  0mm
16:43 82.6 °F /  28.1 °C 64.3 °F /  17.9 °C 29.76in /  1007.7hPa SE 3.0mph /  4.8km/h 8.0mph /  12.9km/h 54% 0.00in /  0mm
16:48 82.6 °F /  28.1 °C 65.3 °F /  18.5 °C 29.76in /  1007.7hPa SE 3.0mph /  4.8km/h 6.0mph /  9.7km/h 56% 0.00in /  0mm
16:53 82.8 °F /  28.2 °C 66.0 °F /  18.9 °C 29.76in /  1007.7hPa South 7.0mph /  11.3km/h 7.0mph /  11.3km/h 57% 0.00in /  0mm
16:58 83.0 °F /  28.3 °C 64.7 °F /  18.2 °C 29.76in /  1007.7hPa SSW 6.0mph /  9.7km/h 8.0mph /  12.9km/h 54% 0.00in /  0mm
16:59 82.9 °F /  28.3 °C 66.1 °F /  18.9 °C 29.76in /  1007.7hPa WSW 5.0mph /  8km/h 7.0mph /  11.3km/h 57% 0.00in /  0mm
17:04 82.7 °F /  28.2 °C 65.9 °F /  18.8 °C 29.76in /  1007.7hPa SSE 6.0mph /  9.7km/h 8.0mph /  12.9km/h 57% 0.00in /  0mm
17:09 82.6 °F /  28.1 °C 64.3 °F /  17.9 °C 29.76in /  1007.7hPa SW 7.0mph /  11.3km/h 10.0mph /  16.1km/h 54% 0.00in /  0mm
17:14 82.5 °F /  28.1 °C 65.2 °F /  18.4 °C 29.76in /  1007.7hPa SE 6.0mph /  9.7km/h 8.0mph /  12.9km/h 56% 0.00in /  0mm
17:19 82.5 °F /  28.1 °C 64.2 °F /  17.9 °C 29.76in /  1007.7hPa SE 4.0mph /  6.4km/h 8.0mph /  12.9km/h 54% 0.00in /  0mm
17:24 82.6 °F /  28.1 °C 66.3 °F /  19.1 °C 29.76in /  1007.7hPa SSW 4.0mph /  6.4km/h 10.0mph /  16.1km/h 58% 0.00in /  0mm
17:30 82.8 °F /  28.2 °C 66.0 °F /  18.9 °C 29.75in /  1007.3hPa SE 6.0mph /  9.7km/h 8.0mph /  12.9km/h 57% 0.00in /  0mm
17:35 82.6 °F /  28.1 °C 65.3 °F /  18.5 °C 29.75in /  1007.3hPa SE 9.0mph /  14.5km/h 9.0mph /  14.5km/h 56% 0.00in /  0mm
17:40 82.4 °F /  28 °C 65.7 °F /  18.7 °C 29.75in /  1007.3hPa SE 6.0mph /  9.7km/h 9.0mph /  14.5km/h 57% 0.00in /  0mm
17:45 82.2 °F /  27.9 °C 66.5 °F /  19.2 °C 29.75in /  1007.3hPa SSE 6.0mph /  9.7km/h 7.0mph /  11.3km/h 59% 0.00in /  0mm
17:46 82.2 °F /  27.9 °C 64.4 °F /  18 °C 29.75in /  1007.3hPa SSE 4.0mph /  6.4km/h 6.0mph /  9.7km/h 55% 0.00in /  0mm
17:51 82.5 °F /  28.1 °C 64.7 °F /  18.2 °C 29.75in /  1007.3hPa SW 3.0mph /  4.8km/h 5.0mph /  8km/h 55% 0.00in /  0mm
17:56 82.4 °F /  28 °C 65.1 °F /  18.4 °C 29.75in /  1007.3hPa SSE 5.0mph /  8km/h 11.0mph /  17.7km/h 56% 0.00in /  0mm
18:01 82.1 °F /  27.8 °C 65.9 °F /  18.8 °C 29.74in /  1007hPa SSE 4.0mph /  6.4km/h 7.0mph /  11.3km/h 58% 0.00in /  0mm
18:06 82.0 °F /  27.8 °C 66.3 °F /  19.1 °C 29.74in /  1007hPa SE 7.0mph /  11.3km/h 11.0mph /  17.7km/h 59% 0.00in /  0mm
18:11 81.6 °F /  27.6 °C 64.9 °F /  18.3 °C 29.74in /  1007hPa SE 5.0mph /  8km/h 9.0mph /  14.5km/h 57% 0.00in /  0mm
18:16 81.4 °F /  27.4 °C 65.2 °F /  18.4 °C 29.73in /  1006.7hPa SE 6.0mph /  9.7km/h 8.0mph /  12.9km/h 58% 0.00in /  0mm
18:22 81.5 °F /  27.5 °C 64.8 °F /  18.2 °C 29.73in /  1006.7hPa ESE 7.0mph /  11.3km/h 8.0mph /  12.9km/h 57% 0.00in /  0mm
18:27 81.2 °F /  27.3 °C 65.0 °F /  18.3 °C 29.73in /  1006.7hPa ESE 4.0mph /  6.4km/h 7.0mph /  11.3km/h 58% 0.00in /  0mm
18:32 81.1 °F /  27.3 °C 66.4 °F /  19.1 °C 29.73in /  1006.7hPa SSE 2.0mph /  3.2km/h 6.0mph /  9.7km/h 61% 0.00in /  0mm
18:37 81.1 °F /  27.3 °C 64.9 °F /  18.3 °C 29.73in /  1006.7hPa SSE 5.0mph /  8km/h 5.0mph /  8km/h 58% 0.00in /  0mm
18:42 81.3 °F /  27.4 °C 64.6 °F /  18.1 °C 29.73in /  1006.7hPa SSE 3.0mph /  4.8km/h 5.0mph /  8km/h 57% 0.00in /  0mm
18:47 81.4 °F /  27.4 °C 64.7 °F /  18.2 °C 29.73in /  1006.7hPa SE 2.0mph /  3.2km/h 3.0mph /  4.8km/h 57% 0.00in /  0mm
18:52 81.5 °F /  27.5 °C 64.3 °F /  17.9 °C 29.74in /  1007hPa SSE 3.0mph /  4.8km/h 4.0mph /  6.4km/h 56% 0.00in /  0mm
18:57 81.4 °F /  27.4 °C 63.2 °F /  17.3 °C 29.74in /  1007hPa SSE 3.0mph /  4.8km/h 4.0mph /  6.4km/h 54% 0.00in /  0mm
19:02 81.4 °F /  27.4 °C 63.7 °F /  17.6 °C 29.74in /  1007hPa SSE 2.0mph /  3.2km/h 3.0mph /  4.8km/h 55% 0.00in /  0mm
19:07 81.2 °F /  27.3 °C 64.0 °F /  17.8 °C 29.74in /  1007hPa SSE 2.0mph /  3.2km/h 4.0mph /  6.4km/h 56% 0.00in /  0mm
19:12 81.1 °F /  27.3 °C 64.9 °F /  18.3 °C 29.75in /  1007.3hPa SSE 1.0mph /  1.6km/h 3.0mph /  4.8km/h 58% 0.00in /  0mm
19:17 81.0 °F /  27.2 °C 64.3 °F /  17.9 °C 29.75in /  1007.3hPa SSE 1.0mph /  1.6km/h 3.0mph /  4.8km/h 57% 0.00in /  0mm
19:22 81.0 °F /  27.2 °C 63.3 °F /  17.4 °C 29.75in /  1007.3hPa SSE 2.0mph /  3.2km/h 3.0mph /  4.8km/h 55% 0.00in /  0mm
19:27 80.8 °F /  27.1 °C 63.7 °F /  17.6 °C 29.76in /  1007.7hPa SSE 3.0mph /  4.8km/h 3.0mph /  4.8km/h 56% 0.00in /  0mm
19:32 80.6 °F /  27 °C 64.0 °F /  17.8 °C 29.76in /  1007.7hPa SSE 2.0mph /  3.2km/h 2.0mph /  3.2km/h 57% 0.00in /  0mm
19:38 80.2 °F /  26.8 °C 63.6 °F /  17.6 °C 29.76in /  1007.7hPa SSE 2.0mph /  3.2km/h 3.0mph /  4.8km/h 57% 0.00in /  0mm
19:43 79.6 °F /  26.4 °C 64.0 °F /  17.8 °C 29.77in /  1008hPa SSE 1.0mph /  1.6km/h 2.0mph /  3.2km/h 59% 0.00in /  0mm
19:48 79.0 °F /  26.1 °C 63.9 °F /  17.7 °C 29.77in /  1008hPa SSE 1.0mph /  1.6km/h 2.0mph /  3.2km/h 60% 0.00in /  0mm
19:53 78.4 °F /  25.8 °C 63.4 °F /  17.4 °C 29.77in /  1008hPa South 1.0mph /  1.6km/h 2.0mph /  3.2km/h 60% 0.00in /  0mm
19:58 77.9 °F /  25.5 °C 63.8 °F /  17.7 °C 29.78in /  1008.4hPa SSE 1.0mph /  1.6km/h 2.0mph /  3.2km/h 62% 0.00in /  0mm
20:03 77.0 °F /  25 °C 63.5 °F /  17.5 °C 29.79in /  1008.7hPa SSE 2.0mph /  3.2km/h 2.0mph /  3.2km/h 63% 0.00in /  0mm
20:08 76.6 °F /  24.8 °C 63.5 °F /  17.5 °C 29.79in /  1008.7hPa South 2.0mph /  3.2km/h 3.0mph /  4.8km/h 64% 0.00in /  0mm
20:13 76.3 °F /  24.6 °C 63.7 °F /  17.6 °C 29.79in /  1008.7hPa South 2.0mph /  3.2km/h 3.0mph /  4.8km/h 65% 0.00in /  0mm
20:18 76.0 °F /  24.4 °C 63.8 °F /  17.7 °C 29.80in /  1009hPa SSE 1.0mph /  1.6km/h 3.0mph /  4.8km/h 66% 0.00in /  0mm
20:23 75.6 °F /  24.2 °C 63.9 °F /  17.7 °C 29.80in /  1009hPa South 1.0mph /  1.6km/h 2.0mph /  3.2km/h 67% 0.00in /  0mm
20:28 75.4 °F /  24.1 °C 63.7 °F /  17.6 °C 29.81in /  1009.4hPa SSE 4.0mph /  6.4km/h 4.0mph /  6.4km/h 67% 0.00in /  0mm
20:33 75.1 °F /  23.9 °C 63.8 °F /  17.7 °C 29.81in /  1009.4hPa SE 2.0mph /  3.2km/h 3.0mph /  4.8km/h 68% 0.00in /  0mm
20:38 74.6 °F /  23.7 °C 63.8 °F /  17.7 °C 29.81in /  1009.4hPa SE 1.0mph /  1.6km/h 2.0mph /  3.2km/h 69% 0.00in /  0mm
20:39 74.5 °F /  23.6 °C 63.7 °F /  17.6 °C 29.81in /  1009.4hPa Calm   1.0mph /  1.6km/h 69% 0.00in /  0mm
20:44 74.0 °F /  23.3 °C 63.6 °F /  17.6 °C 29.81in /  1009.4hPa ESE 2.0mph /  3.2km/h 2.0mph /  3.2km/h 70% 0.00in /  0mm
20:49 73.7 °F /  23.2 °C 63.7 °F /  17.6 °C 29.81in /  1009.4hPa SE 1.0mph /  1.6km/h 2.0mph /  3.2km/h 71% 0.00in /  0mm
20:54 73.4 °F /  23 °C 63.4 °F /  17.4 °C 29.81in /  1009.4hPa ESE 2.0mph /  3.2km/h 2.0mph /  3.2km/h 71% 0.00in /  0mm
20:59 73.5 °F /  23.1 °C 63.5 °F /  17.5 °C 29.81in /  1009.4hPa East 2.0mph /  3.2km/h 3.0mph /  4.8km/h 71% 0.00in /  0mm
21:04 73.1 °F /  22.8 °C 63.5 °F /  17.5 °C 29.81in /  1009.4hPa East 1.0mph /  1.6km/h 2.0mph /  3.2km/h 72% 0.00in /  0mm
21:09 72.5 °F /  22.5 °C 63.4 °F /  17.4 °C 29.81in /  1009.4hPa Calm   1.0mph /  1.6km/h 73% 0.00in /  0mm
21:14 72.3 °F /  22.4 °C 63.6 °F /  17.6 °C 29.81in /  1009.4hPa SE 1.0mph /  1.6km/h 1.0mph /  1.6km/h 74% 0.00in /  0mm
21:19 72.3 °F /  22.4 °C 63.6 °F /  17.6 °C 29.82in /  1009.7hPa SE 1.0mph /  1.6km/h 1.0mph /  1.6km/h 74% 0.00in /  0mm
21:24 72.2 °F /  22.3 °C 63.5 °F /  17.5 °C 29.82in /  1009.7hPa SSE 1.0mph /  1.6km/h 2.0mph /  3.2km/h 74% 0.00in /  0mm
21:29 72.2 °F /  22.3 °C 63.5 °F /  17.5 °C 29.82in /  1009.7hPa Calm   1.0mph /  1.6km/h 74% 0.00in /  0mm
21:34 72.2 °F /  22.3 °C 63.5 °F /  17.5 °C 29.82in /  1009.7hPa SSE 1.0mph /  1.6km/h 2.0mph /  3.2km/h 74% 0.00in /  0mm
21:39 72.2 °F /  22.3 °C 63.5 °F /  17.5 °C 29.82in /  1009.7hPa SSE 2.0mph /  3.2km/h 2.0mph /  3.2km/h 74% 0.00in /  0mm
21:44 72.3 °F /  22.4 °C 63.6 °F /  17.6 °C 29.82in /  1009.7hPa SE 2.0mph /  3.2km/h 2.0mph /  3.2km/h 74% 0.00in /  0mm
21:49 72.4 °F /  22.4 °C 63.7 °F /  17.6 °C 29.83in /  1010hPa SE 1.0mph /  1.6km/h 1.0mph /  1.6km/h 74% 0.00in /  0mm
21:55 72.2 °F /  22.3 °C 63.5 °F /  17.5 °C 29.83in /  1010hPa SE 1.0mph /  1.6km/h 2.0mph /  3.2km/h 74% 0.00in /  0mm
22:00 72.3 °F /  22.4 °C 63.9 °F /  17.7 °C 29.83in /  1010hPa SE 2.0mph /  3.2km/h 2.0mph /  3.2km/h 75% 0.00in /  0mm
22:05 72.4 °F /  22.4 °C 63.7 °F /  17.6 °C 29.83in /  1010hPa SSE 2.0mph /  3.2km/h 2.0mph /  3.2km/h 74% 0.00in /  0mm
22:10 72.4 °F /  22.4 °C 63.3 °F /  17.4 °C 29.83in /  1010hPa SE 1.0mph /  1.6km/h 2.0mph /  3.2km/h 73% 0.00in /  0mm
22:15 72.2 °F /  22.3 °C 63.1 °F /  17.3 °C 29.84in /  1010.4hPa SE 2.0mph /  3.2km/h 2.0mph /  3.2km/h 73% 0.00in /  0mm
22:20 72.2 °F /  22.3 °C 63.1 °F /  17.3 °C 29.84in /  1010.4hPa SSE 2.0mph /  3.2km/h 4.0mph /  6.4km/h 73% 0.00in /  0mm
22:25 72.2 °F /  22.3 °C 63.1 °F /  17.3 °C 29.84in /  1010.4hPa Calm   3.0mph /  4.8km/h 73% 0.00in /  0mm
22:30 72.0 °F /  22.2 °C 62.9 °F /  17.2 °C 29.84in /  1010.4hPa SSE 1.0mph /  1.6km/h 1.0mph /  1.6km/h 73% 0.00in /  0mm
22:35 71.9 °F /  22.2 °C 63.2 °F /  17.3 °C 29.84in /  1010.4hPa SE 1.0mph /  1.6km/h 1.0mph /  1.6km/h 74% 0.00in /  0mm
22:40 71.7 °F /  22.1 °C 62.6 °F /  17 °C 29.84in /  1010.4hPa SE 1.0mph /  1.6km/h 1.0mph /  1.6km/h 73% 0.00in /  0mm
22:46 71.6 °F /  22 °C 62.5 °F /  16.9 °C 29.84in /  1010.4hPa Calm   1.0mph /  1.6km/h 73% 0.00in /  0mm
22:51 71.4 °F /  21.9 °C 62.3 °F /  16.8 °C 29.84in /  1010.4hPa Calm   1.0mph /  1.6km/h 73% 0.00in /  0mm
22:56 71.1 °F /  21.7 °C 62.4 °F /  16.9 °C 29.84in /  1010.4hPa Calm   1.0mph /  1.6km/h 74% 0.00in /  0mm
23:01 70.7 °F /  21.5 °C 62.4 °F /  16.9 °C 29.84in /  1010.4hPa SSE 1.0mph /  1.6km/h 1.0mph /  1.6km/h 75% 0.00in /  0mm
23:06 70.3 °F /  21.3 °C 62.0 °F /  16.7 °C 29.85in /  1010.7hPa SSW 2.0mph /  3.2km/h 2.0mph /  3.2km/h 75% 0.00in /  0mm
23:11 70.1 °F /  21.2 °C 62.2 °F /  16.8 °C 29.85in /  1010.7hPa South 5.0mph /  8km/h 5.0mph /  8km/h 76% 0.00in /  0mm
23:16 70.3 °F /  21.3 °C 62.0 °F /  16.7 °C 29.85in /  1010.7hPa South 1.0mph /  1.6km/h 6.0mph /  9.7km/h 75% 0.00in /  0mm
23:21 70.5 °F /  21.4 °C 61.8 °F /  16.6 °C 29.85in /  1010.7hPa SSW 4.0mph /  6.4km/h 4.0mph /  6.4km/h 74% 0.00in /  0mm
23:26 70.2 °F /  21.2 °C 61.9 °F /  16.6 °C 29.85in /  1010.7hPa SW 2.0mph /  3.2km/h 3.0mph /  4.8km/h 75% 0.00in /  0mm
23:31 70.0 °F /  21.1 °C 62.1 °F /  16.7 °C 29.85in /  1010.7hPa SW 3.0mph /  4.8km/h 4.0mph /  6.4km/h 76% 0.00in /  0mm
23:36 69.8 °F /  21 °C 62.3 °F /  16.8 °C 29.85in /  1010.7hPa WSW 2.0mph /  3.2km/h 3.0mph /  4.8km/h 77% 0.00in /  0mm
23:42 69.7 °F /  20.9 °C 62.2 °F /  16.8 °C 29.84in /  1010.4hPa SW 1.0mph /  1.6km/h 3.0mph /  4.8km/h 77% 0.00in /  0mm
23:47 69.4 °F /  20.8 °C 61.9 °F /  16.6 °C 29.84in /  1010.4hPa SSW 1.0mph /  1.6km/h 1.0mph /  1.6km/h 77% 0.00in /  0mm
23:52 68.9 °F /  20.5 °C 61.8 °F /  16.6 °C 29.84in /  1010.4hPa Calm     78% 0.00in /  0mm
23:57 68.5 °F /  20.3 °C 61.7 °F /  16.5 °C 29.84in /  1010.4hPa Calm     79% 0.00in /  0mm
Compliments of Weather Underground